createdAt,value
2022-08-29T00:01:58.056Z,3.70
2022-08-29T00:04:24.459Z,3.47
2022-08-29T00:06:50.798Z,3.63
2022-08-29T00:09:17.104Z,3.70
2022-08-29T00:11:46.479Z,3.10
2022-08-29T00:14:23.690Z,3.90
2022-08-29T00:16:50.173Z,3.22
2022-08-29T00:19:16.550Z,4.03
2022-08-29T00:21:42.854Z,3.65
2022-08-29T00:24:09.513Z,4.20
2022-08-29T00:26:35.833Z,3.38
2022-08-29T00:29:02.131Z,3.88
2022-08-29T00:31:28.515Z,3.42
2022-08-29T00:33:57.515Z,4.53
2022-08-29T00:36:23.836Z,4.47
2022-08-29T00:38:50.147Z,3.90
2022-08-29T00:41:16.496Z,3.65
2022-08-29T00:43:42.795Z,4.07
2022-08-29T00:46:09.186Z,3.83
2022-08-29T00:48:35.557Z,3.55
2022-08-29T00:51:02.988Z,3.22
2022-08-29T00:53:29.287Z,4.38
2022-08-29T00:55:55.608Z,3.28
2022-08-29T00:58:21.898Z,3.05
2022-08-29T01:00:48.269Z,3.95
2022-08-29T01:03:14.618Z,3.45
2022-08-29T01:05:40.936Z,3.30
2022-08-29T01:08:07.279Z,2.63
2022-08-29T01:10:52.422Z,5.45
2022-08-29T01:13:18.731Z,4.82
2022-08-29T01:15:45.859Z,3.22
2022-08-29T01:18:12.092Z,3.37
2022-08-29T01:20:38.649Z,3.70
2022-08-29T01:23:04.934Z,3.72
2022-08-29T01:25:31.348Z,3.70
2022-08-29T01:27:57.635Z,3.58
2022-08-29T01:30:23.979Z,4.32
2022-08-29T01:32:50.747Z,3.78
2022-08-29T01:35:17.046Z,3.63
2022-08-29T01:37:43.978Z,3.42
2022-08-29T01:40:10.316Z,3.22
2022-08-29T01:42:37.374Z,3.63
2022-08-29T01:45:03.820Z,3.10
2022-08-29T01:47:30.140Z,3.67
2022-08-29T01:49:56.463Z,3.10
2022-08-29T01:52:22.772Z,2.95
2022-08-29T01:54:49.409Z,4.47
2022-08-29T01:57:15.961Z,2.35
2022-08-29T01:59:42.270Z,2.90
2022-08-29T02:02:08.623Z,2.85
2022-08-29T02:04:34.977Z,3.60
2022-08-29T02:07:01.274Z,2.85
2022-08-29T02:09:27.591Z,2.97
2022-08-29T02:11:54.628Z,2.88
2022-08-29T02:14:20.885Z,2.50
2022-08-29T02:16:47.299Z,2.88
2022-08-29T02:19:13.751Z,2.63
2022-08-29T02:21:40.988Z,3.67
2022-08-29T02:24:24.009Z,3.00
2022-08-29T02:26:50.887Z,2.85
2022-08-29T02:29:17.339Z,2.70
2022-08-29T02:31:43.668Z,2.90
2022-08-29T02:34:10.172Z,2.85
2022-08-29T02:36:37.827Z,3.00
2022-08-29T02:39:04.149Z,2.85
2022-08-29T02:41:31.617Z,3.55
2022-08-29T02:43:58.474Z,2.88
2022-08-29T02:46:24.840Z,3.08
2022-08-29T02:49:00.003Z,2.33
2022-08-29T02:51:27.732Z,2.63
2022-08-29T02:53:55.693Z,3.17
2022-08-29T02:58:49.876Z,2.38
2022-08-29T03:03:42.482Z,2.50
2022-08-29T03:06:08.789Z,2.60
2022-08-29T03:08:35.088Z,2.95
2022-08-29T03:11:02.040Z,3.58
2022-08-29T03:13:28.355Z,2.63
2022-08-29T03:15:54.723Z,2.60
2022-08-29T03:18:21.060Z,3.70
2022-08-29T03:20:48.898Z,2.53
2022-08-29T03:23:15.944Z,3.47
2022-08-29T03:25:42.237Z,3.03
2022-08-29T03:28:08.593Z,3.78
2022-08-29T03:30:34.898Z,3.10
2022-08-29T03:33:02.360Z,3.45
2022-08-29T03:35:28.655Z,2.78
2022-08-29T03:37:54.951Z,4.10
2022-08-29T03:40:21.297Z,3.50
2022-08-29T03:42:47.988Z,3.63
2022-08-29T03:45:14.301Z,3.45
2022-08-29T03:47:40.904Z,3.38
2022-08-29T03:50:07.223Z,2.85
2022-08-29T03:52:33.526Z,3.20
2022-08-29T03:55:00.567Z,3.28
2022-08-29T03:57:26.797Z,3.28
2022-08-29T03:59:54.524Z,3.38
2022-08-29T04:02:20.831Z,3.30
2022-08-29T04:05:07.988Z,3.38
2022-08-29T04:07:34.794Z,4.60
2022-08-29T04:10:01.177Z,3.40
2022-08-29T04:12:27.516Z,2.65
2022-08-29T04:14:53.825Z,3.25
2022-08-29T04:17:20.143Z,3.22
2022-08-29T04:19:46.479Z,3.30
2022-08-29T04:22:13.679Z,2.80
2022-08-29T04:24:39.978Z,3.20
2022-08-29T04:27:06.279Z,2.53
2022-08-29T04:29:32.581Z,2.70
2022-08-29T04:31:58.885Z,3.65
2022-08-29T04:34:25.305Z,3.30
2022-08-29T04:36:51.608Z,3.17
2022-08-29T04:39:18.749Z,2.78
2022-08-29T04:41:45.172Z,2.80
2022-08-29T04:44:11.534Z,3.28
2022-08-29T04:46:37.881Z,3.50
2022-08-29T04:49:04.688Z,2.63
2022-08-29T04:51:31.087Z,3.45
2022-08-29T04:53:57.378Z,2.75
2022-08-29T04:56:23.677Z,3.15
2022-08-29T04:58:51.886Z,3.25
2022-08-29T05:01:18.242Z,3.28
2022-08-29T05:03:44.565Z,2.85
2022-08-29T05:06:12.076Z,3.45
2022-08-29T05:08:38.381Z,2.72
2022-08-29T05:11:07.097Z,3.63
2022-08-29T05:13:33.535Z,3.50
2022-08-29T05:15:59.889Z,2.88
2022-08-29T05:18:26.215Z,2.38
2022-08-29T05:20:52.628Z,2.80
2022-08-29T05:23:18.932Z,2.30
2022-08-29T05:25:45.267Z,3.92
2022-08-29T05:28:11.646Z,2.65
2022-08-29T05:30:38.691Z,3.80
2022-08-29T05:33:04.984Z,3.00
2022-08-29T05:35:31.310Z,3.10
2022-08-29T05:37:57.616Z,4.07
2022-08-29T05:40:25.037Z,2.60
2022-08-29T05:42:51.424Z,3.53
2022-08-29T05:45:17.751Z,3.00
2022-08-29T05:47:44.047Z,2.70
2022-08-29T05:50:11.728Z,3.17
2022-08-29T05:52:38.034Z,3.55
2022-08-29T05:55:04.340Z,3.63
2022-08-29T05:57:30.967Z,3.15
2022-08-29T05:59:57.816Z,4.40
2022-08-29T06:02:25.029Z,2.25
2022-08-29T06:04:51.565Z,3.22
2022-08-29T06:07:17.896Z,3.17
2022-08-29T06:09:44.229Z,3.58
2022-08-29T06:12:10.536Z,2.85
2022-08-29T06:14:36.850Z,3.42
2022-08-29T06:17:03.160Z,5.25
2022-08-29T06:19:31.915Z,2.58
2022-08-29T06:21:58.222Z,2.45
2022-08-29T06:24:24.527Z,3.08
2022-08-29T06:26:50.824Z,2.70
2022-08-29T06:29:17.189Z,2.90
2022-08-29T06:31:43.525Z,3.25
2022-08-29T06:34:09.845Z,2.90
2022-08-29T06:36:36.904Z,4.85
2022-08-29T06:39:03.586Z,2.75
2022-08-29T06:41:29.916Z,2.75
2022-08-29T06:43:56.713Z,2.67
2022-08-29T06:46:23.182Z,2.90
2022-08-29T06:48:49.581Z,2.85
2022-08-29T06:51:15.889Z,2.40
2022-08-29T06:53:42.539Z,2.90
2022-08-29T06:56:11.624Z,2.65
2022-08-29T06:58:38.348Z,3.17
2022-08-29T07:01:04.777Z,3.17
2022-08-29T07:03:31.164Z,3.53
2022-08-29T07:05:57.469Z,3.20
2022-08-29T07:08:23.802Z,3.13
2022-08-29T07:10:50.088Z,3.03
2022-08-29T07:13:16.570Z,2.92
2022-08-29T07:15:43.055Z,2.88
2022-08-29T07:18:09.551Z,3.42
2022-08-29T07:20:37.553Z,2.78
2022-08-29T07:25:30.080Z,2.95
2022-08-29T07:27:56.379Z,2.72
2022-08-29T07:30:22.843Z,3.13
2022-08-29T07:32:49.274Z,2.47
2022-08-29T07:35:19.786Z,2.63
2022-08-29T07:37:55.523Z,2.75
2022-08-29T07:40:22.239Z,2.63
2022-08-29T07:42:48.700Z,2.67
2022-08-29T07:45:14.993Z,2.53
2022-08-29T07:47:41.321Z,2.78
2022-08-29T07:50:07.626Z,2.80
2022-08-29T07:52:34.808Z,3.22
2022-08-29T07:55:01.124Z,2.30
2022-08-29T07:57:27.429Z,2.33
2022-08-29T07:59:53.734Z,2.85
2022-08-29T08:02:20.141Z,3.45
2022-08-29T08:04:46.476Z,3.13
2022-08-29T08:07:13.704Z,3.10
2022-08-29T08:09:40.402Z,2.75
2022-08-29T08:12:08.451Z,2.63
2022-08-29T08:14:35.320Z,2.63
2022-08-29T08:17:01.703Z,2.47
2022-08-29T08:19:28.056Z,3.03
2022-08-29T08:21:54.361Z,2.25
2022-08-29T08:24:20.655Z,3.92
2022-08-29T08:26:46.977Z,3.67
2022-08-29T08:29:13.282Z,3.10
2022-08-29T08:31:39.811Z,2.58
2022-08-29T08:34:06.909Z,2.60
2022-08-29T08:36:40.207Z,2.37
2022-08-29T08:39:07.240Z,3.03
2022-08-29T08:41:33.594Z,2.95
2022-08-29T08:43:59.892Z,2.63
2022-08-29T08:46:26.237Z,2.92
2022-08-29T08:48:52.862Z,2.90
2022-08-29T08:51:19.196Z,2.38
2022-08-29T08:53:45.500Z,2.80
2022-08-29T08:56:11.817Z,3.33
2022-08-29T08:58:38.115Z,2.30
2022-08-29T09:01:04.828Z,3.97
2022-08-29T09:03:33.306Z,3.05
2022-08-29T09:05:59.622Z,2.70
2022-08-29T09:08:25.944Z,2.58
2022-08-29T09:10:56.640Z,2.67
2022-08-29T09:13:24.977Z,2.72
2022-08-29T09:15:51.274Z,2.50
2022-08-29T09:18:21.850Z,2.45
2022-08-29T09:20:50.263Z,3.72
2022-08-29T09:23:16.693Z,2.80
2022-08-29T09:25:43.101Z,2.72
2022-08-29T09:28:09.825Z,2.88
2022-08-29T09:30:36.661Z,3.53
2022-08-29T09:33:03.012Z,3.03
2022-08-29T09:35:29.422Z,2.40
2022-08-29T09:37:55.723Z,3.30
2022-08-29T09:40:22.123Z,2.83
2022-08-29T09:42:48.499Z,2.50
2022-08-29T09:45:14.799Z,3.00
2022-08-29T09:47:41.119Z,2.75
2022-08-29T09:50:07.427Z,3.90
2022-08-29T09:52:33.888Z,2.80
2022-08-29T09:55:00.187Z,2.92
2022-08-29T09:57:26.503Z,3.38
2022-08-29T09:59:52.825Z,3.60
2022-08-29T10:02:19.629Z,2.70
2022-08-29T10:04:46.043Z,2.70
2022-08-29T10:07:12.351Z,2.95
2022-08-29T10:09:38.648Z,2.75
2022-08-29T10:12:04.951Z,2.35
2022-08-29T10:14:31.250Z,3.50
2022-08-29T10:17:17.507Z,2.97
2022-08-29T10:19:43.811Z,2.70
2022-08-29T10:22:10.153Z,2.78
2022-08-29T10:24:36.471Z,2.78
2022-08-29T10:27:02.807Z,3.65
2022-08-29T10:29:31.737Z,2.60
2022-08-29T10:31:58.752Z,2.67
2022-08-29T10:34:25.080Z,2.72
2022-08-29T10:36:51.500Z,2.45
2022-08-29T10:39:19.213Z,2.70
2022-08-29T10:46:48.687Z,2.97
2022-08-29T10:49:16.308Z,2.65
2022-08-29T10:51:42.770Z,2.42
2022-08-29T10:54:09.109Z,2.40
2022-08-29T10:56:35.431Z,3.25
2022-08-29T10:59:01.771Z,2.80
2022-08-29T11:01:28.248Z,3.58
2022-08-29T11:03:54.949Z,2.53
2022-08-29T11:06:22.466Z,2.85
2022-08-29T11:08:50.566Z,2.65
2022-08-29T11:11:16.873Z,3.30
2022-08-29T11:13:43.183Z,2.47
2022-08-29T11:16:09.557Z,3.03
2022-08-29T11:18:35.908Z,3.13
2022-08-29T11:21:02.219Z,2.60
2022-08-29T11:23:28.587Z,1.83
2022-08-29T11:25:55.183Z,2.40
2022-08-29T11:28:21.481Z,2.40
2022-08-29T11:30:48.353Z,2.20
2022-08-29T11:33:14.886Z,2.75
2022-08-29T11:35:41.292Z,2.05
2022-08-29T11:38:07.597Z,2.60
2022-08-29T11:43:24.879Z,2.08
2022-08-29T11:45:51.181Z,2.22
2022-08-29T11:48:17.504Z,2.53
2022-08-29T11:50:43.843Z,2.00
2022-08-29T11:53:10.511Z,2.08
2022-08-29T11:55:36.853Z,1.85
2022-08-29T11:58:05.184Z,1.90
2022-08-29T12:00:33.503Z,1.85
2022-08-29T12:02:59.935Z,1.95
2022-08-29T12:05:26.223Z,2.00
2022-08-29T12:07:52.521Z,2.03
2022-08-29T12:10:18.807Z,2.22
2022-08-29T12:12:45.549Z,1.80
2022-08-29T12:15:11.861Z,1.83
2022-08-29T12:18:00.526Z,2.20
2022-08-29T12:20:24.479Z,2.53
2022-08-29T12:22:50.777Z,2.03
2022-08-29T12:25:20.869Z,1.80
2022-08-29T12:27:47.180Z,1.77
2022-08-29T12:30:13.646Z,2.03
2022-08-29T12:32:40.349Z,1.73
2022-08-29T12:35:06.679Z,2.08
2022-08-29T12:37:33.969Z,1.67
2022-08-29T12:40:00.290Z,1.90
2022-08-29T12:42:26.677Z,1.83
2022-08-29T12:47:24.249Z,2.40
2022-08-29T12:49:54.002Z,1.70
2022-08-29T12:52:20.295Z,1.80
2022-08-29T12:54:46.943Z,2.20
2022-08-29T12:57:13.262Z,2.42
2022-08-29T12:59:39.577Z,2.08
2022-08-29T13:02:06.861Z,1.90
2022-08-29T13:04:33.814Z,2.00
2022-08-29T13:07:00.482Z,2.15
2022-08-29T13:09:26.788Z,2.13
2022-08-29T13:11:53.171Z,2.15
2022-08-29T13:14:21.258Z,1.70
2022-08-29T13:16:47.563Z,2.05
2022-08-29T13:19:13.894Z,2.20
2022-08-29T13:21:40.221Z,1.90
2022-08-29T13:24:06.595Z,2.30
2022-08-29T13:26:34.108Z,1.80
2022-08-29T13:29:01.075Z,3.08
2022-08-29T13:31:30.452Z,1.53
2022-08-29T13:33:56.860Z,2.80
2022-08-29T13:36:23.491Z,1.88
2022-08-29T13:38:49.797Z,1.67
2022-08-29T13:41:16.087Z,1.85
2022-08-29T13:43:43.246Z,1.88
2022-08-29T13:46:14.126Z,2.10
2022-08-29T13:48:41.091Z,2.22
2022-08-29T13:51:07.402Z,1.98
2022-08-29T13:53:33.698Z,1.88
2022-08-29T13:56:00.007Z,1.55
2022-08-29T13:58:26.835Z,1.83
2022-08-29T14:00:53.573Z,2.00
2022-08-29T14:03:20.448Z,2.30
2022-08-29T14:05:46.922Z,2.33
2022-08-29T14:08:13.232Z,1.55
2022-08-29T14:10:39.526Z,2.22
2022-08-29T14:13:05.821Z,1.85
2022-08-29T14:15:32.178Z,2.30
2022-08-29T14:17:58.479Z,1.75
2022-08-29T14:20:24.784Z,2.30
2022-08-29T14:22:51.083Z,1.70
2022-08-29T14:25:17.371Z,2.47
2022-08-29T14:27:43.675Z,1.85
2022-08-29T14:30:10.344Z,1.80
2022-08-29T14:32:38.510Z,1.67
2022-08-29T14:35:04.862Z,1.83
2022-08-29T14:37:31.834Z,1.60
2022-08-29T14:39:58.323Z,1.90
2022-08-29T14:42:26.509Z,1.95
2022-08-29T14:44:52.880Z,1.55
2022-08-29T14:47:19.219Z,1.77
2022-08-29T14:49:45.524Z,1.52
2022-08-29T14:52:15.209Z,1.80
2022-08-29T14:54:42.583Z,1.50
2022-08-29T14:57:08.867Z,1.42
2022-08-29T14:59:36.017Z,1.92
2022-08-29T15:02:02.446Z,2.00
2022-08-29T15:04:35.623Z,2.28
2022-08-29T15:07:03.566Z,2.08
2022-08-29T15:09:29.996Z,1.70
2022-08-29T15:11:56.344Z,1.92
2022-08-29T15:14:22.656Z,1.38
2022-08-29T15:16:48.947Z,1.55
2022-08-29T15:19:45.244Z,1.70
2022-08-29T15:22:01.530Z,1.85
2022-08-29T15:24:27.852Z,1.90
2022-08-29T15:26:56.139Z,1.55
2022-08-29T15:29:22.435Z,1.85
2022-08-29T15:31:48.736Z,1.50
2022-08-29T15:34:15.050Z,1.80
2022-08-29T15:36:41.522Z,1.83
2022-08-29T15:39:09.484Z,2.10
2022-08-29T15:41:35.852Z,1.70
2022-08-29T15:44:02.220Z,1.48
2022-08-29T15:46:29.039Z,2.00
2022-08-29T15:48:55.375Z,1.70
2022-08-29T15:51:21.674Z,1.80
2022-08-29T15:53:47.993Z,1.73
2022-08-29T15:56:14.396Z,1.45
2022-08-29T15:58:40.697Z,2.22
2022-08-29T16:01:07.143Z,1.80
2022-08-29T16:03:33.524Z,1.65
2022-08-29T16:06:00.102Z,1.52
2022-08-29T16:08:29.819Z,1.40
2022-08-29T16:10:56.185Z,1.42
2022-08-29T16:13:22.559Z,1.77
2022-08-29T16:15:50.072Z,1.42
2022-08-29T16:18:16.612Z,1.50
2022-08-29T16:20:43.428Z,1.50
2022-08-29T16:23:09.907Z,1.35
2022-08-29T16:25:36.452Z,1.58
2022-08-29T16:28:08.015Z,1.42
2022-08-29T16:30:34.368Z,1.60
2022-08-29T16:33:01.598Z,1.60
2022-08-29T16:35:28.353Z,1.63
2022-08-29T16:38:02.718Z,1.60
2022-08-29T16:40:29.858Z,1.98
2022-08-29T16:42:56.466Z,1.33
2022-08-29T16:45:22.769Z,1.63
2022-08-29T16:47:49.086Z,1.42
2022-08-29T16:52:44.281Z,2.28
2022-08-29T16:55:10.589Z,1.50
2022-08-29T16:57:36.888Z,1.50
2022-08-29T17:00:03.213Z,1.70
2022-08-29T17:02:29.615Z,1.90
2022-08-29T17:04:55.968Z,1.90
2022-08-29T17:07:32.319Z,1.88
2022-08-29T17:09:58.585Z,2.00
2022-08-29T17:12:24.847Z,2.38
2022-08-29T17:14:54.791Z,2.38
2022-08-29T17:17:21.452Z,2.78
2022-08-29T17:19:47.781Z,2.20
2022-08-29T17:22:15.779Z,2.40
2022-08-29T17:24:42.104Z,2.30
2022-08-29T17:27:10.295Z,2.33
2022-08-29T17:29:37.306Z,2.10
2022-08-29T17:32:03.615Z,2.38
2022-08-29T17:34:29.910Z,2.28
2022-08-29T17:36:56.203Z,2.28
2022-08-29T17:39:22.495Z,2.13
2022-08-29T17:41:49.623Z,2.42
2022-08-29T17:44:15.924Z,2.58
2022-08-29T17:46:42.526Z,2.20
2022-08-29T17:49:10.351Z,2.40
2022-08-29T17:54:03.490Z,2.03
2022-08-29T17:56:29.825Z,2.53
2022-08-29T17:58:57.368Z,2.05
2022-08-29T18:01:23.864Z,2.08
2022-08-29T18:03:51.058Z,2.05
2022-08-29T18:06:18.706Z,2.20
2022-08-29T18:08:48.135Z,2.63
2022-08-29T18:11:15.588Z,3.00
2022-08-29T18:13:42.121Z,2.15
2022-08-29T18:16:09.438Z,2.65
2022-08-29T18:18:36.191Z,2.72
2022-08-29T18:21:02.701Z,2.35
2022-08-29T18:23:29.006Z,2.67
2022-08-29T18:25:55.372Z,2.42
2022-08-29T18:28:21.776Z,2.25
2022-08-29T18:30:48.245Z,2.33
2022-08-29T18:33:14.598Z,2.40
2022-08-29T18:35:40.891Z,2.65
2022-08-29T18:38:07.729Z,2.47
2022-08-29T18:40:38.905Z,2.20
2022-08-29T18:43:06.113Z,2.47
2022-08-29T18:45:34.481Z,2.95
2022-08-29T18:48:00.798Z,2.33
2022-08-29T18:50:36.538Z,2.08
2022-08-29T18:53:04.012Z,2.85
2022-08-29T18:55:30.485Z,2.65
2022-08-29T18:57:56.785Z,2.65
2022-08-29T19:00:24.877Z,2.65
2022-08-29T19:02:51.275Z,2.92
2022-08-29T19:05:18.369Z,3.22
2022-08-29T19:07:44.676Z,2.45
2022-08-29T19:10:10.965Z,2.70
2022-08-29T19:12:37.288Z,2.58
2022-08-29T19:15:04.229Z,2.85
2022-08-29T19:17:30.543Z,2.80
2022-08-29T19:20:15.325Z,3.05
2022-08-29T19:22:42.062Z,3.80
2022-08-29T19:25:08.662Z,2.90
2022-08-29T19:27:43.191Z,3.75
2022-08-29T19:30:09.809Z,3.10
2022-08-29T19:32:36.748Z,2.70
2022-08-29T19:35:03.149Z,3.50
2022-08-29T19:37:32.200Z,3.15
2022-08-29T19:39:58.532Z,2.67
2022-08-29T19:42:24.871Z,2.75
2022-08-29T19:44:51.181Z,4.13
2022-08-29T19:47:17.485Z,2.40
2022-08-29T19:49:45.289Z,3.25
2022-08-29T19:52:14.440Z,4.13
2022-08-29T19:54:40.746Z,2.80
2022-08-29T19:57:09.789Z,3.13
2022-08-29T19:59:40.000Z,2.85
2022-08-29T20:02:08.802Z,3.10
2022-08-29T20:04:35.145Z,3.65
2022-08-29T20:07:01.486Z,3.17
2022-08-29T20:09:28.444Z,3.40
2022-08-29T20:11:54.833Z,3.20
2022-08-29T20:14:21.132Z,3.42
2022-08-29T20:16:47.539Z,2.80
2022-08-29T20:19:15.715Z,3.22
2022-08-29T20:21:43.267Z,3.40
2022-08-29T20:24:10.286Z,3.15
2022-08-29T20:26:41.988Z,2.92
2022-08-29T20:29:08.311Z,3.05
2022-08-29T20:31:34.712Z,3.70
2022-08-29T20:34:01.033Z,3.58
2022-08-29T20:36:45.893Z,3.13
2022-08-29T20:39:12.192Z,3.10
2022-08-29T20:41:38.486Z,3.65
2022-08-29T20:44:07.492Z,3.58
2022-08-29T20:46:33.920Z,4.32
2022-08-29T20:49:01.399Z,3.25
2022-08-29T20:51:27.719Z,4.00
2022-08-29T20:53:54.147Z,3.42
2022-08-29T20:56:20.948Z,4.38
2022-08-29T20:58:47.257Z,3.58
2022-08-29T21:01:13.736Z,3.63
2022-08-29T21:03:58.768Z,3.40
2022-08-29T21:06:25.091Z,3.72
2022-08-29T21:08:51.400Z,3.90
2022-08-29T21:11:17.722Z,4.03
2022-08-29T21:13:50.053Z,3.63
2022-08-29T21:16:19.003Z,3.75
2022-08-29T21:18:45.404Z,4.47
2022-08-29T21:21:12.983Z,3.63
2022-08-29T21:23:39.267Z,4.32
2022-08-29T21:26:05.559Z,4.07
2022-08-29T21:28:34.956Z,3.80
2022-08-29T21:31:04.377Z,4.43
2022-08-29T21:33:33.268Z,3.85
2022-08-29T21:36:01.045Z,4.20
2022-08-29T21:38:27.519Z,4.07
2022-08-29T21:40:56.232Z,3.78
2022-08-29T21:43:22.550Z,3.58
2022-08-29T21:45:48.846Z,4.43
2022-08-29T21:48:15.157Z,3.65
2022-08-29T21:50:41.660Z,3.90
2022-08-29T21:53:08.021Z,3.95
2022-08-29T21:55:34.358Z,4.00
2022-08-29T21:58:01.617Z,4.30
2022-08-29T22:00:27.907Z,3.88
2022-08-29T22:02:54.443Z,4.07
2022-08-29T22:05:20.815Z,3.55
2022-08-29T22:07:47.159Z,3.92
2022-08-29T22:10:13.682Z,4.38
2022-08-29T22:12:39.987Z,3.40
2022-08-29T22:15:25.329Z,3.83
2022-08-29T22:17:51.636Z,3.83
2022-08-29T22:20:17.962Z,3.80
2022-08-29T22:22:44.280Z,4.15
2022-08-29T22:25:11.183Z,4.10
2022-08-29T22:27:37.479Z,4.07
2022-08-29T22:30:03.780Z,4.25
2022-08-29T22:32:32.326Z,3.55
2022-08-29T22:35:02.405Z,3.70
2022-08-29T22:37:28.729Z,4.38
2022-08-29T22:39:55.026Z,3.22
2022-08-29T22:42:21.351Z,3.22
2022-08-29T22:45:03.318Z,3.40
2022-08-29T22:47:31.163Z,3.35
2022-08-29T22:49:58.028Z,3.60
2022-08-29T22:52:24.576Z,3.78
2022-08-29T22:54:50.872Z,2.90
2022-08-29T22:57:17.161Z,3.08
2022-08-29T22:59:43.455Z,3.78
2022-08-29T23:02:09.745Z,4.20
2022-08-29T23:04:36.063Z,3.10
2022-08-29T23:07:02.395Z,3.40
2022-08-29T23:09:28.703Z,2.55
2022-08-29T23:12:01.718Z,3.95
2022-08-29T23:14:28.696Z,3.47
2022-08-29T23:16:55.121Z,2.92
2022-08-29T23:19:21.448Z,4.78
2022-08-29T23:21:48.303Z,3.72
2022-08-29T23:24:16.916Z,3.20
2022-08-29T23:26:43.175Z,3.53
2022-08-29T23:29:09.470Z,3.65
2022-08-29T23:31:35.844Z,3.80
2022-08-29T23:34:02.503Z,3.55
2022-08-29T23:36:28.795Z,3.08
2022-08-29T23:38:55.106Z,3.58
2022-08-29T23:41:22.191Z,3.13
2022-08-29T23:43:48.528Z,3.17
2022-08-29T23:46:14.891Z,3.33
2022-08-29T23:48:41.291Z,3.90
2022-08-29T23:51:07.590Z,3.67
2022-08-29T23:53:34.308Z,3.10
2022-08-29T23:56:00.603Z,3.65
2022-08-29T23:58:26.984Z,3.55
